Jock — WDF2423 — position and weather

sailwx.info

Track history (hours):
 
Tides and Currents Weather Stations Pressure Air Temp Water Temp Dewpoint Dewpoint Depression Visibility Wind Speed Wind Dir Waves Ship Positions

Jock

Owner: Enterprise Marine Services, LLC, San Antonio, TX. More information available from US FCC via Universal Licensing System and Coast Guard Vessel Documentation Center.

Last reported at 2015-May-28 22:33 UTC. Time now 2015-May-29 00:20 UTC.
Position N 29°47' W 095°05'.

Length 28 m.

Type: Other ship. MMSI: 367003460.

Date/timePositionNaut miles runAvg speedWind from/ knotsBaromVisibWave heightAir tempDewpointWater temp
2015-May-28 22:33N 29°47' W 095°05'0 0.0
2015-May-28 21:19N 29°47' W 095°05'0 0.0
2015-May-28 20:33N 29°47' W 095°05'0 0.0
2015-May-28 18:10N 29°47' W 095°05'0 0.0
2015-May-28 17:31N 29°47' W 095°05'0 0.0
2015-May-28 16:32N 29°47' W 095°05'0 0.1
2015-May-28 15:26N 29°47' W 095°05'0 0.0
2015-May-28 14:33N 29°47' W 095°05'0 0.0
2015-May-28 13:33N 29°47' W 095°05'0 0.1
2015-May-28 12:33N 29°47' W 095°05'0 0.0
2015-May-28 11:33N 29°47' W 095°05'0 0.0
2015-May-28 10:33N 29°47' W 095°05'0 0.0
2015-May-28 09:33N 29°47' W 095°05'0 0.0
2015-May-28 08:33N 29°47' W 095°05'0 0.0
2015-May-28 07:33N 29°47' W 095°05'0 0.0
2015-May-28 06:33N 29°47' W 095°05'0 0.0
2015-May-28 05:33N 29°47' W 095°05'0 0.0
2015-May-28 04:33N 29°47' W 095°05'0 0.0
2015-May-28 03:33N 29°47' W 095°05'0 0.0
2015-May-28 02:33N 29°47' W 095°05'0 0.0
2015-May-28 01:33N 29°47' W 095°05'0 0.0
2015-May-28 00:31N 29°47' W 095°05'0 0.0
2015-May-27 23:23N 29°47' W 095°05'0 0.0
2015-May-27 22:33N 29°47' W 095°05'0 0.0
2015-May-27 21:25N 29°47' W 095°05'0 0.0
2015-May-27 20:31N 29°47' W 095°05'0 0.3
2015-May-27 19:33N 29°47' W 095°05'0 0.0
2015-May-27 18:32N 29°47' W 095°05'0 0.3
2015-May-27 17:33N 29°47' W 095°05'0 0.0
2015-May-27 16:33N 29°47' W 095°05'1 0.3
2015-May-27 14:24N 29°47' W 095°05'2 2.5
2015-May-27 13:33N 29°45' W 095°06'0 0.0
2015-May-27 12:33N 29°45' W 095°06'0 0.0
2015-May-27 11:33N 29°45' W 095°06'0 0.0
2015-May-27 10:26N 29°45' W 095°06'0 0.0
2015-May-27 09:31N 29°45' W 095°06'0 0.0
2015-May-27 08:32N 29°45' W 095°06'0 0.0
2015-May-27 07:27N 29°45' W 095°06'0 0.0
2015-May-27 06:23N 29°45' W 095°06'0 0.0
2015-May-27 03:05N 29°45' W 095°06'0 0.0
2015-May-27 02:28N 29°45' W 095°06'0 0.0
2015-May-27 01:33N 29°45' W 095°06'0 0.0
2015-May-27 00:32N 29°45' W 095°06'0 0.0
2015-May-26 23:33N 29°45' W 095°06'0 0.0
2015-May-26 22:24N 29°45' W 095°06'0 0.0
2015-May-26 21:33N 29°45' W 095°06'0 0.0
2015-May-26 20:32N 29°45' W 095°06'0 0.0
2015-May-26 19:31N 29°45' W 095°06'0 0.0
2015-May-26 18:17N 29°45' W 095°06'0 0.0
2015-May-26 17:24N 29°45' W 095°06'0 0.0
2015-May-26 16:32N 29°45' W 095°06'0 0.0
2015-May-26 15:16N 29°45' W 095°06'0 0.0
2015-May-26 14:32N 29°45' W 095°06'0 0.0
2015-May-26 13:33N 29°45' W 095°06'0 0.0
2015-May-26 12:33N 29°45' W 095°06'0 0.0
2015-May-26 11:29N 29°45' W 095°06'0 0.0
2015-May-26 10:33N 29°45' W 095°06'0 0.0
2015-May-26 09:33N 29°45' W 095°06'0 0.0
2015-May-26 08:30N 29°45' W 095°06'0 0.0
2015-May-26 07:32N 29°45' W 095°06'0 0.0
2015-May-26 06:33N 29°45' W 095°06'0 0.0
2015-May-26 05:32N 29°45' W 095°06'0 0.0
2015-May-26 04:33N 29°45' W 095°06'0 0.1
2015-May-26 03:33N 29°45' W 095°06'0 0.4
2015-May-26 02:28N 29°45' W 095°06'3 3.3
2015-May-26 01:33N 29°47' W 095°04'0 0.1
2015-May-26 00:33N 29°47' W 095°04'1 0.1
2015-May-25 15:19N 29°47' W 095°05'0 0.0
2015-May-25 10:25N 29°47' W 095°05'0 0.0
2015-May-25 09:25N 29°47' W 095°05'0 0.0
2015-May-25 08:32N 29°47' W 095°05'0 0.0
2015-May-25 04:23N 29°47' W 095°05'0 0.0
2015-May-25 03:33N 29°47' W 095°05'0 0.0
2015-May-25 02:33N 29°47' W 095°05'0 0.0
2015-May-25 01:33N 29°47' W 095°05'0 0.0
2015-May-25 00:33N 29°47' W 095°05'0 0.0
2015-May-24 23:33N 29°47' W 095°05'0 0.0
2015-May-24 22:33N 29°47' W 095°05'0 0.0
2015-May-24 21:33N 29°47' W 095°05'0 0.0
2015-May-24 20:33N 29°47' W 095°05'0 0.0
2015-May-24 19:33N 29°47' W 095°05'0 0.0
2015-May-24 18:32N 29°47' W 095°05'0 0.0
2015-May-24 17:29N 29°47' W 095°05'0 0.0
2015-May-24 16:32N 29°47' W 095°05'0 0.0
2015-May-24 15:33N 29°47' W 095°05'0 0.0
2015-May-24 14:33N 29°47' W 095°05'0 0.1
2015-May-24 13:33N 29°47' W 095°05'1 0.8
2015-May-24 12:33N 29°46' W 095°05'4 3.8
2015-May-24 11:33N 29°44' W 095°08'0 0.0
2015-May-24 10:33N 29°44' W 095°08'0 0.0
2015-May-24 09:33N 29°44' W 095°08'0 0.2
2015-May-24 08:32N 29°44' W 095°08'0 0.0
2015-May-24 07:33N 29°44' W 095°08'0 0.0
2015-May-24 06:32N 29°44' W 095°08'0 0.0
2015-May-24 05:33N 29°44' W 095°08'0 0.0
2015-May-24 04:33N 29°44' W 095°08'0 0.0
2015-May-24 03:33N 29°44' W 095°08'0 0.0
2015-May-24 02:33N 29°44' W 095°08'0 0.0
2015-May-24 01:33N 29°44' W 095°08'0 0.0
2015-May-24 00:33N 29°44' W 095°08'0 0.0
2015-May-23 23:33N 29°44' W 095°08'0 0.3
2015-May-23 22:33N 29°44' W 095°08'0 0.0
2015-May-23 21:33N 29°44' W 095°08'0 0.0
2015-May-23 20:33N 29°44' W 095°08'0 0.0
2015-May-23 19:33N 29°44' W 095°08'0 0.2
2015-May-23 18:33N 29°44' W 095°08'0 0.0
2015-May-23 17:33N 29°44' W 095°08'0 0.0
2015-May-23 16:33N 29°44' W 095°08'0 0.0
2015-May-23 15:33N 29°44' W 095°08'0 0.0
2015-May-23 14:33N 29°44' W 095°08'0 0.0
2015-May-23 13:33N 29°44' W 095°08'0 0.0
2015-May-23 12:33N 29°44' W 095°08'0 0.0
2015-May-23 11:33N 29°44' W 095°08'0 0.0
2015-May-23 10:33N 29°44' W 095°08'0 0.0
2015-May-23 09:33N 29°44' W 095°08'0 0.0
2015-May-23 08:33N 29°44' W 095°08'0 0.0
2015-May-23 07:33N 29°44' W 095°08'0 0.0
2015-May-23 06:33N 29°44' W 095°08'0 0.0
2015-May-23 05:33N 29°44' W 095°08'0 0.0
2015-May-23 04:33N 29°44' W 095°08'0 0.0
2015-May-23 03:33N 29°44' W 095°08'0 0.0
2015-May-23 02:33N 29°44' W 095°08'0 0.0
2015-May-23 01:33N 29°44' W 095°08'0 0.0
2015-May-23 00:33N 29°44' W 095°08'0 0.0
2015-May-22 23:33N 29°44' W 095°08'0 0.0
2015-May-22 22:33N 29°44' W 095°08'0 0.0
2015-May-22 21:33N 29°44' W 095°08'0 0.0
2015-May-22 20:33N 29°44' W 095°08'0 0.0
2015-May-22 19:33N 29°44' W 095°08'4 4.3
2015-May-22 18:33N 29°47' W 095°05'0 0.2
2015-May-22 17:33N 29°47' W 095°05'5 4.5
2015-May-22 16:33N 29°44' W 095°08'0 0.0
2015-May-22 15:33N 29°44' W 095°08'0 0.0
2015-May-22 14:33N 29°44' W 095°08'0 0.0
2015-May-22 13:33N 29°44' W 095°08'0 0.0
2015-May-22 12:33N 29°44' W 095°08'0 0.0
2015-May-22 11:33N 29°44' W 095°08'0 0.0
2015-May-22 10:33N 29°44' W 095°08'0 0.0
2015-May-22 09:33N 29°44' W 095°08'0 0.0
2015-May-22 08:33N 29°44' W 095°08'0 0.0
2015-May-22 07:33N 29°44' W 095°08'0 0.0
2015-May-22 06:33N 29°44' W 095°08'0 0.0
2015-May-22 05:33N 29°44' W 095°08'0 0.0
2015-May-22 04:33N 29°44' W 095°08'0 0.0
2015-May-22 03:33N 29°44' W 095°08'0 0.0
2015-May-22 02:33N 29°44' W 095°08'0 0.0
2015-May-22 01:33N 29°44' W 095°08'0 0.0
2015-May-22 00:33N 29°44' W 095°08'0 0.0
2015-May-21 23:33N 29°44' W 095°08'0 0.0
2015-May-21 22:33N 29°44' W 095°08'0 0.0
2015-May-21 21:33N 29°44' W 095°08'0 0.0
2015-May-21 20:33N 29°44' W 095°08'0 0.0
2015-May-21 19:33N 29°44' W 095°08'0 0.0
2015-May-21 18:33N 29°44' W 095°08'3 3.0
2015-May-21 17:33N 29°46' W 095°05'6 6.1
2015-May-21 16:33N 29°42' W 094°60'8 8.0
2015-May-21 15:33N 29°35' W 094°56'3 0.1
2015-May-19 23:32N 29°32' W 094°54'8 8.4
2015-May-19 22:33N 29°39' W 094°58'6 6.4
2015-May-19 21:33N 29°44' W 095°03'3 2.8
2015-May-19 20:33N 29°47' W 095°05'1 0.5
2015-May-19 19:27N 29°47' W 095°05'0 0.0
2015-May-19 18:33N 29°47' W 095°05'0 0.0
2015-May-19 16:33N 29°47' W 095°05'0 0.0
2015-May-19 15:33N 29°47' W 095°05'0 0.0
2015-May-19 14:33N 29°47' W 095°05'0 0.0
2015-May-19 13:33N 29°47' W 095°05'0 0.0
2015-May-19 12:33N 29°47' W 095°05'0 0.0
2015-May-19 11:33N 29°47' W 095°05'0 0.0
2015-May-19 10:33N 29°47' W 095°05'0 0.4
2015-May-19 09:33N 29°47' W 095°05'1 0.6
2015-May-19 08:28N 29°48' W 095°04'0 0.0
2015-May-19 07:33N 29°48' W 095°04'0 0.0
2015-May-19 06:14N 29°48' W 095°04'0 0.0
2015-May-19 05:33N 29°48' W 095°04'1 1.2
2015-May-19 04:32N 29°47' W 095°05'1 0.7
2015-May-19 03:33N 29°47' W 095°04'0 0.2
2015-May-19 02:33N 29°47' W 095°05'0 0.2
2015-May-19 00:31N 29°47' W 095°05'0 0.0
2015-May-18 23:20N 29°47' W 095°05'  
Track history (hours):
 
Tides and Currents Weather Stations Pressure Air Temp Water Temp Dewpoint Dewpoint Depression Visibility Wind Speed Wind Dir Waves Ship Positions

Jock

Owner: Enterprise Marine Services, LLC, San Antonio, TX. More information available from US FCC via Universal Licensing System and Coast Guard Vessel Documentation Center.

Last reported at 2015-May-28 22:33 UTC. Time now 2015-May-29 00:20 UTC.
Position N 29°47' W 095°05'.

Length 28 m.

Type: Other ship. MMSI: 367003460.

Date/timePositionNaut miles runAvg speedWind from/ knotsBaromVisibWave heightAir tempDewpointWater temp
2015-May-28 22:33N 29°47' W 095°05'0 0.0
2015-May-28 21:19N 29°47' W 095°05'0 0.0
2015-May-28 20:33N 29°47' W 095°05'0 0.0
2015-May-28 18:10N 29°47' W 095°05'0 0.0
2015-May-28 17:31N 29°47' W 095°05'0 0.0
2015-May-28 16:32N 29°47' W 095°05'0 0.1
2015-May-28 15:26N 29°47' W 095°05'0 0.0
2015-May-28 14:33N 29°47' W 095°05'0 0.0
2015-May-28 13:33N 29°47' W 095°05'0 0.1
2015-May-28 12:33N 29°47' W 095°05'0 0.0
2015-May-28 11:33N 29°47' W 095°05'0 0.0
2015-May-28 10:33N 29°47' W 095°05'0 0.0
2015-May-28 09:33N 29°47' W 095°05'0 0.0
2015-May-28 08:33N 29°47' W 095°05'0 0.0
2015-May-28 07:33N 29°47' W 095°05'0 0.0
2015-May-28 06:33N 29°47' W 095°05'0 0.0
2015-May-28 05:33N 29°47' W 095°05'0 0.0
2015-May-28 04:33N 29°47' W 095°05'0 0.0
2015-May-28 03:33N 29°47' W 095°05'0 0.0
2015-May-28 02:33N 29°47' W 095°05'0 0.0
2015-May-28 01:33N 29°47' W 095°05'0 0.0
2015-May-28 00:31N 29°47' W 095°05'0 0.0
2015-May-27 23:23N 29°47' W 095°05'0 0.0
2015-May-27 22:33N 29°47' W 095°05'0 0.0
2015-May-27 21:25N 29°47' W 095°05'0 0.0
2015-May-27 20:31N 29°47' W 095°05'0 0.3
2015-May-27 19:33N 29°47' W 095°05'0 0.0
2015-May-27 18:32N 29°47' W 095°05'0 0.3
2015-May-27 17:33N 29°47' W 095°05'0 0.0
2015-May-27 16:33N 29°47' W 095°05'1 0.3
2015-May-27 14:24N 29°47' W 095°05'2 2.5
2015-May-27 13:33N 29°45' W 095°06'0 0.0
2015-May-27 12:33N 29°45' W 095°06'0 0.0
2015-May-27 11:33N 29°45' W 095°06'0 0.0
2015-May-27 10:26N 29°45' W 095°06'0 0.0
2015-May-27 09:31N 29°45' W 095°06'0 0.0
2015-May-27 08:32N 29°45' W 095°06'0 0.0
2015-May-27 07:27N 29°45' W 095°06'0 0.0
2015-May-27 06:23N 29°45' W 095°06'0 0.0
2015-May-27 03:05N 29°45' W 095°06'0 0.0
2015-May-27 02:28N 29°45' W 095°06'0 0.0
2015-May-27 01:33N 29°45' W 095°06'0 0.0
2015-May-27 00:32N 29°45' W 095°06'0 0.0
2015-May-26 23:33N 29°45' W 095°06'0 0.0
2015-May-26 22:24N 29°45' W 095°06'0 0.0
2015-May-26 21:33N 29°45' W 095°06'0 0.0
2015-May-26 20:32N 29°45' W 095°06'0 0.0
2015-May-26 19:31N 29°45' W 095°06'0 0.0
2015-May-26 18:17N 29°45' W 095°06'0 0.0
2015-May-26 17:24N 29°45' W 095°06'0 0.0
2015-May-26 16:32N 29°45' W 095°06'0 0.0
2015-May-26 15:16N 29°45' W 095°06'0 0.0
2015-May-26 14:32N 29°45' W 095°06'0 0.0
2015-May-26 13:33N 29°45' W 095°06'0 0.0
2015-May-26 12:33N 29°45' W 095°06'0 0.0
2015-May-26 11:29N 29°45' W 095°06'0 0.0
2015-May-26 10:33N 29°45' W 095°06'0 0.0
2015-May-26 09:33N 29°45' W 095°06'0 0.0
2015-May-26 08:30N 29°45' W 095°06'0 0.0
2015-May-26 07:32N 29°45' W 095°06'0 0.0
2015-May-26 06:33N 29°45' W 095°06'0 0.0
2015-May-26 05:32N 29°45' W 095°06'0 0.0
2015-May-26 04:33N 29°45' W 095°06'0 0.1
2015-May-26 03:33N 29°45' W 095°06'0 0.4
2015-May-26 02:28N 29°45' W 095°06'3 3.3
2015-May-26 01:33N 29°47' W 095°04'0 0.1
2015-May-26 00:33N 29°47' W 095°04'1 0.1
2015-May-25 15:19N 29°47' W 095°05'0 0.0
2015-May-25 10:25N 29°47' W 095°05'0 0.0
2015-May-25 09:25N 29°47' W 095°05'0 0.0
2015-May-25 08:32N 29°47' W 095°05'0 0.0
2015-May-25 04:23N 29°47' W 095°05'0 0.0
2015-May-25 03:33N 29°47' W 095°05'0 0.0
2015-May-25 02:33N 29°47' W 095°05'0 0.0
2015-May-25 01:33N 29°47' W 095°05'0 0.0
2015-May-25 00:33N 29°47' W 095°05'0 0.0
2015-May-24 23:33N 29°47' W 095°05'0 0.0
2015-May-24 22:33N 29°47' W 095°05'0 0.0
2015-May-24 21:33N 29°47' W 095°05'0 0.0
2015-May-24 20:33N 29°47' W 095°05'0 0.0
2015-May-24 19:33N 29°47' W 095°05'0 0.0
2015-May-24 18:32N 29°47' W 095°05'0 0.0
2015-May-24 17:29N 29°47' W 095°05'0 0.0
2015-May-24 16:32N 29°47' W 095°05'0 0.0
2015-May-24 15:33N 29°47' W 095°05'0 0.0
2015-May-24 14:33N 29°47' W 095°05'0 0.1
2015-May-24 13:33N 29°47' W 095°05'1 0.8
2015-May-24 12:33N 29°46' W 095°05'4 3.8
2015-May-24 11:33N 29°44' W 095°08'0 0.0
2015-May-24 10:33N 29°44' W 095°08'0 0.0
2015-May-24 09:33N 29°44' W 095°08'0 0.2
2015-May-24 08:32N 29°44' W 095°08'0 0.0
2015-May-24 07:33N 29°44' W 095°08'0 0.0
2015-May-24 06:32N 29°44' W 095°08'0 0.0
2015-May-24 05:33N 29°44' W 095°08'0 0.0
2015-May-24 04:33N 29°44' W 095°08'0 0.0
2015-May-24 03:33N 29°44' W 095°08'0 0.0
2015-May-24 02:33N 29°44' W 095°08'0 0.0
2015-May-24 01:33N 29°44' W 095°08'0 0.0
2015-May-24 00:33N 29°44' W 095°08'0 0.0
2015-May-23 23:33N 29°44' W 095°08'0 0.3
2015-May-23 22:33N 29°44' W 095°08'0 0.0
2015-May-23 21:33N 29°44' W 095°08'0 0.0
2015-May-23 20:33N 29°44' W 095°08'0 0.0
2015-May-23 19:33N 29°44' W 095°08'0 0.2
2015-May-23 18:33N 29°44' W 095°08'0 0.0
2015-May-23 17:33N 29°44' W 095°08'0 0.0
2015-May-23 16:33N 29°44' W 095°08'0 0.0
2015-May-23 15:33N 29°44' W 095°08'0 0.0
2015-May-23 14:33N 29°44' W 095°08'0 0.0
2015-May-23 13:33N 29°44' W 095°08'0 0.0
2015-May-23 12:33N 29°44' W 095°08'0 0.0
2015-May-23 11:33N 29°44' W 095°08'0 0.0
2015-May-23 10:33N 29°44' W 095°08'0 0.0
2015-May-23 09:33N 29°44' W 095°08'0 0.0
2015-May-23 08:33N 29°44' W 095°08'0 0.0
2015-May-23 07:33N 29°44' W 095°08'0 0.0
2015-May-23 06:33N 29°44' W 095°08'0 0.0
2015-May-23 05:33N 29°44' W 095°08'0 0.0
2015-May-23 04:33N 29°44' W 095°08'0 0.0
2015-May-23 03:33N 29°44' W 095°08'0 0.0
2015-May-23 02:33N 29°44' W 095°08'0 0.0
2015-May-23 01:33N 29°44' W 095°08'0 0.0
2015-May-23 00:33N 29°44' W 095°08'0 0.0
2015-May-22 23:33N 29°44' W 095°08'0 0.0
2015-May-22 22:33N 29°44' W 095°08'0 0.0
2015-May-22 21:33N 29°44' W 095°08'0 0.0
2015-May-22 20:33N 29°44' W 095°08'0 0.0
2015-May-22 19:33N 29°44' W 095°08'4 4.3
2015-May-22 18:33N 29°47' W 095°05'0 0.2
2015-May-22 17:33N 29°47' W 095°05'5 4.5
2015-May-22 16:33N 29°44' W 095°08'0 0.0
2015-May-22 15:33N 29°44' W 095°08'0 0.0
2015-May-22 14:33N 29°44' W 095°08'0 0.0
2015-May-22 13:33N 29°44' W 095°08'0 0.0
2015-May-22 12:33N 29°44' W 095°08'0 0.0
2015-May-22 11:33N 29°44' W 095°08'0 0.0
2015-May-22 10:33N 29°44' W 095°08'0 0.0
2015-May-22 09:33N 29°44' W 095°08'0 0.0
2015-May-22 08:33N 29°44' W 095°08'0 0.0
2015-May-22 07:33N 29°44' W 095°08'0 0.0
2015-May-22 06:33N 29°44' W 095°08'0 0.0
2015-May-22 05:33N 29°44' W 095°08'0 0.0
2015-May-22 04:33N 29°44' W 095°08'0 0.0
2015-May-22 03:33N 29°44' W 095°08'0 0.0
2015-May-22 02:33N 29°44' W 095°08'0 0.0
2015-May-22 01:33N 29°44' W 095°08'0 0.0
2015-May-22 00:33N 29°44' W 095°08'0 0.0
2015-May-21 23:33N 29°44' W 095°08'0 0.0
2015-May-21 22:33N 29°44' W 095°08'0 0.0
2015-May-21 21:33N 29°44' W 095°08'0 0.0
2015-May-21 20:33N 29°44' W 095°08'0 0.0
2015-May-21 19:33N 29°44' W 095°08'0 0.0
2015-May-21 18:33N 29°44' W 095°08'3 3.0
2015-May-21 17:33N 29°46' W 095°05'6 6.1
2015-May-21 16:33N 29°42' W 094°60'8 8.0
2015-May-21 15:33N 29°35' W 094°56'3 0.1
2015-May-19 23:32N 29°32' W 094°54'8 8.4
2015-May-19 22:33N 29°39' W 094°58'6 6.4
2015-May-19 21:33N 29°44' W 095°03'3 2.8
2015-May-19 20:33N 29°47' W 095°05'1 0.5
2015-May-19 19:27N 29°47' W 095°05'0 0.0
2015-May-19 18:33N 29°47' W 095°05'0 0.0
2015-May-19 16:33N 29°47' W 095°05'0 0.0
2015-May-19 15:33N 29°47' W 095°05'0 0.0
2015-May-19 14:33N 29°47' W 095°05'0 0.0
2015-May-19 13:33N 29°47' W 095°05'0 0.0
2015-May-19 12:33N 29°47' W 095°05'0 0.0
2015-May-19 11:33N 29°47' W 095°05'0 0.0
2015-May-19 10:33N 29°47' W 095°05'0 0.4
2015-May-19 09:33N 29°47' W 095°05'1 0.6
2015-May-19 08:28N 29°48' W 095°04'0 0.0
2015-May-19 07:33N 29°48' W 095°04'0 0.0
2015-May-19 06:14N 29°48' W 095°04'0 0.0
2015-May-19 05:33N 29°48' W 095°04'1 1.2
2015-May-19 04:32N 29°47' W 095°05'1 0.7
2015-May-19 03:33N 29°47' W 095°04'0 0.2
2015-May-19 02:33N 29°47' W 095°05'0 0.2
2015-May-19 00:31N 29°47' W 095°05'0 0.0
2015-May-18 23:20N 29°47' W 095°05'  

Dump ship's entire track history